Aviation Digital Data Service (ADDS)

Output produced by TAFs form (0139 UTC 22 November 2017)
found at http://www.aviationweather.gov/adds/tafs/
 
METAR text: RJFY 212127Z 06010KT 9999 FEW030 BKN080 12/07 Q1018 RMK 1CU030 7AC080 A3006
Conditions at: RJFY (KANOYA (JMSDF) , JP) observed 2127 UTC 21 November 2017
Temperature: 12.0°C (54°F)
Dewpoint: 7.0°C (45°F) [RH = 71%]
Pressure (altimeter): 30.06 inches Hg (1018.0 mb)
Winds: from the ENE (60 degrees) at 12 MPH (10 knots; 5.2 m/s)
Visibility: 6 or more miles (10+ km)
Ceiling: 8000 feet AGL
Clouds: few clouds at 3000 feet AGL
broken clouds at 8000 feet AGL
Weather: no significant weather observed at this time